Time;durP1;ratioP1;P1;durP2;ratioP2;P2;SDS_P1;SDS_P2;PMS_P1;PMS_P2;Temp;Humidity;BMP_temperature;BMP_pressure;BME280_temperature;BME280_humidity;BME280_pressure;Samples;Min_cycle;Max_cycle;Signal;HPM_P1;HPM_P2
2023/04/21 00:01:13;;;;;;;;;;;8.40;99.90;;;;;;5040115;28;20371;-63
2023/04/21 00:03:40;;;;;;;;;;;8.40;99.90;;;;;;5040429;28;19925;-63
2023/04/21 00:06:06;;;;;;;;;;;8.40;99.90;;;;;;5044940;28;20363;-66
2023/04/21 00:08:31;;;;;;;;;;;8.40;99.90;;;;;;5040140;28;19924;-65
2023/04/21 00:10:57;;;;;;;;;;;8.40;99.90;;;;;;5040636;28;20441;-63
2023/04/21 00:13:23;;;;;;;;;;;8.40;99.90;;;;;;5043580;28;20329;-64
2023/04/21 00:15:48;;;;;;;;;;;8.40;99.90;;;;;;5036967;28;19913;-64
2023/04/21 00:18:14;;;;;;;;;;;8.40;99.90;;;;;;5038996;28;19913;-64
2023/04/21 00:20:40;;;;;;;;;;;8.40;99.90;;;;;;5035194;28;19924;-62
2023/04/21 00:23:05;;;;;;;;;;;8.30;99.90;;;;;;5040090;28;20528;-63
2023/04/21 00:25:31;;;;;;;;;;;8.30;99.90;;;;;;5039100;28;20007;-63
2023/04/21 00:27:56;;;;;;;;;;;8.30;99.90;;;;;;5035195;28;20379;-63
2023/04/21 00:30:22;;;;;;;;;;;8.30;99.90;;;;;;5038099;28;19932;-63
2023/04/21 00:32:47;;;;;;;;;;;8.30;99.90;;;;;;5030989;28;19971;-62
2023/04/21 00:35:13;;;;;;;;;;;8.30;99.90;;;;;;5040361;28;20007;-64
2023/04/21 00:37:39;;;;;;;;;;;8.30;99.90;;;;;;5035467;28;19921;-64
2023/04/21 00:40:05;;;;;;;;;;;8.30;99.90;;;;;;5035866;28;19917;-62
2023/04/21 00:42:30;;;;;;;;;;;8.40;99.90;;;;;;5042132;28;19913;-63
2023/04/21 00:44:56;;;;;;;;;;;8.40;99.90;;;;;;5035638;28;20089;-64
2023/04/21 00:47:21;;;;;;;;;;;8.40;99.90;;;;;;5038076;28;19917;-66
2023/04/21 00:49:47;;;;;;;;;;;8.40;99.90;;;;;;5039041;28;19924;-65
2023/04/21 00:52:13;;;;;;;;;;;8.40;99.90;;;;;;5031581;28;19970;-64
2023/04/21 00:54:38;;;;;;;;;;;8.40;99.90;;;;;;5039867;28;20017;-64
2023/04/21 00:57:06;;;;;;;;;;;8.40;99.90;;;;;;5033322;28;19917;-66
2023/04/21 00:59:32;;;;;;;;;;;8.30;99.90;;;;;;5034631;28;19948;-63
2023/04/21 01:01:57;;;;;;;;;;;8.40;99.90;;;;;;5038543;28;20322;-63
2023/04/21 01:04:23;;;;;;;;;;;8.40;99.90;;;;;;5037721;28;19917;-62
2023/04/21 01:06:48;;;;;;;;;;;8.30;99.90;;;;;;5034517;28;19924;-63
2023/04/21 01:09:14;;;;;;;;;;;8.30;99.90;;;;;;5038992;28;19919;-61
2023/04/21 01:11:39;;;;;;;;;;;8.30;99.90;;;;;;5037494;28;19916;-62
2023/04/21 01:14:05;;;;;;;;;;;8.40;99.90;;;;;;5041736;28;20011;-64
2023/04/21 01:16:31;;;;;;;;;;;8.40;99.90;;;;;;5040072;28;19917;-62
2023/04/21 01:18:58;;;;;;;;;;;8.30;99.90;;;;;;5036152;28;19928;-62
2023/04/21 01:21:23;;;;;;;;;;;8.20;99.90;;;;;;5033045;28;19927;-64
2023/04/21 01:23:49;;;;;;;;;;;8.20;99.90;;;;;;5037020;28;19917;-63
2023/04/21 01:26:18;;;;;;;;;;;8.20;99.90;;;;;;5037825;28;20457;-62
2023/04/21 01:28:43;;;;;;;;;;;8.20;99.90;;;;;;5037792;28;19921;-62
2023/04/21 01:31:09;;;;;;;;;;;8.20;99.90;;;;;;5030708;28;19921;-63
2023/04/21 01:33:34;;;;;;;;;;;8.20;99.90;;;;;;5033937;28;19946;-62
2023/04/21 01:36:00;;;;;;;;;;;8.10;99.90;;;;;;5037079;28;19919;-62
2023/04/21 01:38:26;;;;;;;;;;;8.10;99.90;;;;;;5035093;28;19917;-63
2023/04/21 01:40:53;;;;;;;;;;;8.10;99.90;;;;;;5036974;28;19913;-63
2023/04/21 01:43:20;;;;;;;;;;;8.10;99.90;;;;;;5035325;28;19917;-62
2023/04/21 01:45:46;;;;;;;;;;;8.20;99.90;;;;;;5039025;28;19935;-62
2023/04/21 01:48:11;;;;;;;;;;;8.20;99.90;;;;;;5036791;28;19966;-62
2023/04/21 01:50:37;;;;;;;;;;;8.20;99.90;;;;;;5032785;28;19916;-64
2023/04/21 01:53:02;;;;;;;;;;;8.20;99.90;;;;;;5031022;28;19913;-61
2023/04/21 01:55:28;;;;;;;;;;;8.20;99.90;;;;;;5041555;28;19988;-63
2023/04/21 01:57:56;;;;;;;;;;;8.10;99.90;;;;;;5037215;28;19936;-62
2023/04/21 02:00:22;;;;;;;;;;;8.10;99.90;;;;;;5034418;28;19913;-64
2023/04/21 02:02:47;;;;;;;;;;;8.20;99.90;;;;;;5036677;28;19920;-61
2023/04/21 02:05:13;;;;;;;;;;;8.10;99.90;;;;;;5037677;28;19917;-61
2023/04/21 02:07:38;;;;;;;;;;;8.20;99.90;;;;;;5035662;28;20671;-63
2023/04/21 02:10:04;;;;;;;;;;;8.20;99.90;;;;;;5035926;28;20019;-61
2023/04/21 02:12:29;;;;;;;;;;;8.20;99.90;;;;;;5035959;28;19962;-62
2023/04/21 02:14:55;;;;;;;;;;;8.20;99.90;;;;;;5037194;28;19971;-63
2023/04/21 02:17:20;;;;;;;;;;;8.20;99.90;;;;;;5035410;28;19913;-65
2023/04/21 02:19:46;;;;;;;;;;;8.20;99.90;;;;;;5039995;28;19924;-64
2023/04/21 02:22:12;;;;;;;;;;;8.20;99.90;;;;;;5041652;28;19913;-64
2023/04/21 02:24:37;;;;;;;;;;;8.10;99.90;;;;;;5043893;28;20305;-63
2023/04/21 02:27:03;;;;;;;;;;;8.00;99.90;;;;;;5038499;28;19928;-65
2023/04/21 02:29:29;;;;;;;;;;;8.00;99.90;;;;;;5046246;28;19958;-63
2023/04/21 02:31:54;;;;;;;;;;;7.90;99.90;;;;;;5048320;28;19913;-62
2023/04/21 02:34:20;;;;;;;;;;;7.80;99.90;;;;;;5039562;28;19913;-62
2023/04/21 02:36:45;;;;;;;;;;;7.70;99.90;;;;;;5040996;28;19913;-63
2023/04/21 02:39:11;;;;;;;;;;;7.60;99.90;;;;;;5041862;28;20361;-65
2023/04/21 02:41:37;;;;;;;;;;;7.60;99.90;;;;;;5042196;28;20441;-64
2023/04/21 02:44:02;;;;;;;;;;;7.50;99.90;;;;;;5041629;28;19917;-64
2023/04/21 02:46:28;;;;;;;;;;;7.40;99.90;;;;;;5037907;28;19913;-63
2023/04/21 02:48:53;;;;;;;;;;;7.30;99.90;;;;;;5038197;28;20000;-66
2023/04/21 02:51:18;;;;;;;;;;;7.30;99.90;;;;;;5044208;28;19939;-64
2023/04/21 02:53:44;;;;;;;;;;;7.30;99.90;;;;;;5040440;28;19944;-64
2023/04/21 02:56:09;;;;;;;;;;;7.30;99.90;;;;;;5039669;28;20398;-64
2023/04/21 02:58:35;;;;;;;;;;;7.40;99.90;;;;;;5035916;28;19916;-64
2023/04/21 03:01:02;;;;;;;;;;;7.30;99.90;;;;;;5030226;28;19914;-65
2023/04/21 03:03:27;;;;;;;;;;;7.30;99.90;;;;;;5038936;28;20338;-63
2023/04/21 03:06:00;;;;;;;;;;;7.30;99.90;;;;;;5039423;28;19919;-64
2023/04/21 03:08:25;;;;;;;;;;;7.30;99.90;;;;;;5035241;28;20398;-66
2023/04/21 03:10:51;;;;;;;;;;;7.30;99.90;;;;;;5041295;28;19990;-64
2023/04/21 03:13:16;;;;;;;;;;;7.30;99.90;;;;;;5040857;28;19912;-63
2023/04/21 03:15:42;;;;;;;;;;;7.30;99.90;;;;;;5035216;28;19935;-64
2023/04/21 03:18:07;;;;;;;;;;;7.30;99.90;;;;;;5037882;28;19924;-64
2023/04/21 03:20:33;;;;;;;;;;;7.20;99.90;;;;;;5037644;28;20195;-63
2023/04/21 03:22:58;;;;;;;;;;;7.10;99.90;;;;;;5038103;28;19972;-63
2023/04/21 03:25:26;;;;;;;;;;;6.90;99.90;;;;;;5039159;28;19920;-64
2023/04/21 03:27:55;;;;;;;;;;;6.80;99.90;;;;;;5037250;28;19913;-63
2023/04/21 03:30:21;;;;;;;;;;;6.80;99.90;;;;;;5035491;28;20403;-64
2023/04/21 03:32:46;;;;;;;;;;;6.90;99.90;;;;;;5036149;28;20007;-65
2023/04/21 03:35:12;;;;;;;;;;;6.80;99.90;;;;;;5042070;28;20418;-63
2023/04/21 03:37:37;;;;;;;;;;;6.80;99.90;;;;;;5040072;28;20413;-64
2023/04/21 03:40:06;;;;;;;;;;;6.80;99.90;;;;;;5039434;28;19913;-65
2023/04/21 03:42:32;;;;;;;;;;;6.80;99.90;;;;;;5036105;28;19928;-62
2023/04/21 03:45:04;;;;;;;;;;;6.80;99.90;;;;;;5033135;28;19917;-62
2023/04/21 03:47:30;;;;;;;;;;;6.80;99.90;;;;;;5036069;28;19963;-63
2023/04/21 03:49:55;;;;;;;;;;;6.70;99.90;;;;;;5039881;28;19970;-63
2023/04/21 03:52:21;;;;;;;;;;;6.70;99.90;;;;;;5039257;28;20489;-63
2023/04/21 03:54:46;;;;;;;;;;;6.70;99.90;;;;;;5035610;28;20004;-64
2023/04/21 03:57:12;;;;;;;;;;;6.70;99.90;;;;;;5043183;28;20341;-63
2023/04/21 03:59:37;;;;;;;;;;;6.70;99.90;;;;;;5031621;28;20315;-63
2023/04/21 04:02:03;;;;;;;;;;;6.70;99.90;;;;;;5031707;28;20027;-60
2023/04/21 04:04:28;;;;;;;;;;;6.70;99.90;;;;;;5042765;28;19924;-66
2023/04/21 04:06:54;;;;;;;;;;;6.70;99.90;;;;;;5040472;28;20311;-63
2023/04/21 04:09:19;;;;;;;;;;;6.60;99.90;;;;;;5039571;28;20325;-64
2023/04/21 04:11:45;;;;;;;;;;;6.60;99.90;;;;;;5034734;28;19986;-64
2023/04/21 04:14:10;;;;;;;;;;;6.60;99.90;;;;;;5040807;28;19913;-64
2023/04/21 04:16:36;;;;;;;;;;;6.40;99.90;;;;;;5040464;28;19912;-64
2023/04/21 04:19:02;;;;;;;;;;;6.30;99.90;;;;;;5040528;28;20008;-65
2023/04/21 04:21:28;;;;;;;;;;;6.10;99.90;;;;;;5036626;28;20379;-64
2023/04/21 04:23:53;;;;;;;;;;;6.10;99.90;;;;;;5047183;28;19917;-66
2023/04/21 04:26:21;;;;;;;;;;;6.10;99.90;;;;;;5033174;28;19913;-63
2023/04/21 04:28:46;;;;;;;;;;;6.10;99.90;;;;;;5034783;28;19909;-63
2023/04/21 04:31:12;;;;;;;;;;;6.20;99.90;;;;;;5036214;28;20290;-64
2023/04/21 04:33:39;;;;;;;;;;;6.30;99.90;;;;;;5039108;28;19963;-64
2023/04/21 04:36:05;;;;;;;;;;;6.30;99.90;;;;;;5042039;28;20341;-63
2023/04/21 04:38:33;;;;;;;;;;;6.40;99.90;;;;;;5032081;28;19917;-63
2023/04/21 04:41:01;;;;;;;;;;;6.40;99.90;;;;;;5035090;28;20267;-62
2023/04/21 04:43:26;;;;;;;;;;;6.40;99.90;;;;;;5031590;28;20218;-63
2023/04/21 04:45:52;;;;;;;;;;;6.40;99.90;;;;;;5031311;28;19928;-64
2023/04/21 04:48:18;;;;;;;;;;;6.40;99.90;;;;;;5035981;28;19921;-63
2023/04/21 04:50:43;;;;;;;;;;;6.40;99.90;;;;;;5033314;28;19959;-61
2023/04/21 04:53:09;;;;;;;;;;;6.30;99.90;;;;;;5031261;28;19952;-63
2023/04/21 04:55:34;;;;;;;;;;;6.20;99.90;;;;;;5034696;28;20565;-62
2023/04/21 04:58:00;;;;;;;;;;;6.10;99.90;;;;;;5036244;28;19913;-63
2023/04/21 05:00:27;;;;;;;;;;;6.10;99.90;;;;;;5034232;28;19941;-64
2023/04/21 05:02:53;;;;;;;;;;;6.10;99.90;;;;;;5033876;28;20337;-64
2023/04/21 05:05:20;;;;;;;;;;;6.20;99.90;;;;;;5039030;28;19923;-64
2023/04/21 05:07:46;;;;;;;;;;;6.30;99.90;;;;;;5035186;28;19913;-64
2023/04/21 05:10:11;;;;;;;;;;;6.30;99.90;;;;;;5044110;28;20456;-63
2023/04/21 05:12:37;;;;;;;;;;;6.40;99.90;;;;;;5036516;28;19913;-63
2023/04/21 05:15:03;;;;;;;;;;;6.40;99.90;;;;;;5039779;28;20598;-63
2023/04/21 05:17:29;;;;;;;;;;;6.50;99.90;;;;;;5035286;28;20430;-63
2023/04/21 05:19:55;;;;;;;;;;;6.50;99.90;;;;;;5033582;28;19913;-63
2023/04/21 05:22:21;;;;;;;;;;;6.50;99.90;;;;;;5036112;28;20370;-63
2023/04/21 05:24:47;;;;;;;;;;;6.50;99.90;;;;;;5034813;28;19973;-63
2023/04/21 05:27:12;;;;;;;;;;;6.50;99.90;;;;;;5036048;28;19912;-64
2023/04/21 05:29:38;;;;;;;;;;;6.50;99.90;;;;;;5041709;28;19920;-63
2023/04/21 05:32:04;;;;;;;;;;;6.40;99.90;;;;;;5036698;28;20375;-63
2023/04/21 05:34:29;;;;;;;;;;;6.40;99.90;;;;;;5042945;28;20282;-64
2023/04/21 05:36:55;;;;;;;;;;;6.40;99.90;;;;;;5036539;28;19913;-63
2023/04/21 05:39:20;;;;;;;;;;;6.50;99.90;;;;;;5031642;28;19919;-63
2023/04/21 05:41:46;;;;;;;;;;;6.40;99.90;;;;;;5030200;28;20035;-64
2023/04/21 05:44:12;;;;;;;;;;;6.40;99.90;;;;;;5040307;28;19917;-64
2023/04/21 05:46:38;;;;;;;;;;;6.50;99.90;;;;;;5035366;28;19919;-64
2023/04/21 05:49:03;;;;;;;;;;;6.60;99.90;;;;;;5044346;28;20503;-64
2023/04/21 05:51:28;;;;;;;;;;;6.50;99.90;;;;;;5037251;28;20413;-64
2023/04/21 05:53:54;;;;;;;;;;;6.50;99.90;;;;;;5041072;28;19974;-64
2023/04/21 05:56:20;;;;;;;;;;;6.60;99.90;;;;;;5033893;28;20149;-63
2023/04/21 05:58:45;;;;;;;;;;;6.60;99.90;;;;;;5038627;28;20007;-63
2023/04/21 06:01:11;;;;;;;;;;;6.60;99.90;;;;;;5038348;28;19916;-63
2023/04/21 06:03:37;;;;;;;;;;;6.60;99.90;;;;;;5041904;28;19917;-63
2023/04/21 06:06:05;;;;;;;;;;;6.60;99.90;;;;;;5045236;28;20555;-63
2023/04/21 06:08:31;;;;;;;;;;;6.60;99.90;;;;;;5042854;28;19917;-63
2023/04/21 06:10:56;;;;;;;;;;;6.70;99.90;;;;;;5036110;28;19923;-63
2023/04/21 06:13:21;;;;;;;;;;;6.80;99.90;;;;;;5039649;28;19913;-63
2023/04/21 06:15:47;;;;;;;;;;;6.90;99.90;;;;;;5037805;28;19912;-63
2023/04/21 06:18:12;;;;;;;;;;;7.00;99.90;;;;;;5038722;28;19941;-63
2023/04/21 06:20:39;;;;;;;;;;;7.10;99.90;;;;;;5040987;28;19909;-63
2023/04/21 06:23:05;;;;;;;;;;;7.30;99.90;;;;;;5039015;28;19913;-63
2023/04/21 06:25:30;;;;;;;;;;;7.30;99.90;;;;;;5043740;28;20379;-63
2023/04/21 06:27:56;;;;;;;;;;;7.40;99.90;;;;;;5040688;28;20378;-63
2023/04/21 06:30:22;;;;;;;;;;;7.60;99.90;;;;;;5037398;28;19974;-62
2023/04/21 06:32:47;;;;;;;;;;;7.70;99.90;;;;;;5039342;28;19920;-63
2023/04/21 06:35:14;;;;;;;;;;;7.90;99.90;;;;;;5036663;28;19909;-64
2023/04/21 06:37:40;;;;;;;;;;;7.90;99.90;;;;;;5036331;28;20379;-64
2023/04/21 06:40:06;;;;;;;;;;;8.10;99.90;;;;;;5043157;28;19942;-62
2023/04/21 06:42:31;;;;;;;;;;;8.20;99.90;;;;;;5037093;28;20473;-64
2023/04/21 06:44:57;;;;;;;;;;;8.30;99.90;;;;;;5042785;28;19940;-64
2023/04/21 06:47:22;;;;;;;;;;;8.40;99.90;;;;;;5036022;28;19913;-64
2023/04/21 06:49:47;;;;;;;;;;;8.50;99.90;;;;;;5039465;28;19917;-64
2023/04/21 06:52:13;;;;;;;;;;;8.50;99.90;;;;;;5035486;28;19909;-64
2023/04/21 06:54:38;;;;;;;;;;;8.70;99.90;;;;;;5036657;28;19913;-64
2023/04/21 06:57:04;;;;;;;;;;;8.60;99.90;;;;;;5037827;28;19917;-64
2023/04/21 06:59:30;;;;;;;;;;;8.60;99.90;;;;;;5040890;28;19913;-64
2023/04/21 07:01:55;;;;;;;;;;;8.70;99.90;;;;;;5035710;28;20425;-64
2023/04/21 07:04:21;;;;;;;;;;;8.70;99.90;;;;;;5041060;28;20000;-62
2023/04/21 07:06:47;;;;;;;;;;;8.60;99.90;;;;;;5037704;28;19916;-64
2023/04/21 07:09:12;;;;;;;;;;;8.50;99.90;;;;;;5042674;28;19916;-64
2023/04/21 07:11:38;;;;;;;;;;;8.50;99.90;;;;;;5038506;28;19915;-64
2023/04/21 07:14:03;;;;;;;;;;;8.60;99.90;;;;;;5043486;28;19909;-64
2023/04/21 07:16:29;;;;;;;;;;;8.60;99.90;;;;;;5039476;28;19916;-64
2023/04/21 07:18:54;;;;;;;;;;;8.60;99.90;;;;;;5046340;28;20007;-64
2023/04/21 07:21:20;;;;;;;;;;;8.60;99.90;;;;;;5036549;28;19909;-64
2023/04/21 07:23:45;;;;;;;;;;;8.70;99.90;;;;;;5040283;28;19913;-64
2023/04/21 07:26:11;;;;;;;;;;;8.80;99.90;;;;;;5034803;28;19917;-64
2023/04/21 07:28:37;;;;;;;;;;;8.80;99.90;;;;;;5038345;28;19917;-64
2023/04/21 07:31:03;;;;;;;;;;;8.90;99.90;;;;;;5036901;28;19920;-64
2023/04/21 07:33:28;;;;;;;;;;;8.90;99.90;;;;;;5046638;28;20302;-64
2023/04/21 07:35:54;;;;;;;;;;;9.00;99.90;;;;;;5040803;28;19912;-64
2023/04/21 07:38:19;;;;;;;;;;;9.00;99.90;;;;;;5041210;28;19923;-64
2023/04/21 07:40:45;;;;;;;;;;;9.10;99.90;;;;;;5038601;28;19935;-64
2023/04/21 07:43:10;;;;;;;;;;;9.20;99.90;;;;;;5046065;28;20363;-64
2023/04/21 07:45:36;;;;;;;;;;;9.30;99.90;;;;;;5040396;28;20299;-64
2023/04/21 07:48:01;;;;;;;;;;;9.30;99.90;;;;;;5041667;28;19939;-64
2023/04/21 07:50:27;;;;;;;;;;;9.40;99.90;;;;;;5036761;28;19921;-64
2023/04/21 07:52:52;;;;;;;;;;;9.40;99.90;;;;;;5039164;28;20380;-64
2023/04/21 07:55:18;;;;;;;;;;;9.50;99.90;;;;;;5040759;28;19928;-64
2023/04/21 07:57:43;;;;;;;;;;;9.40;99.90;;;;;;5042417;28;19912;-64
2023/04/21 08:00:09;;;;;;;;;;;9.50;99.90;;;;;;5040423;28;20333;-64
2023/04/21 08:02:34;;;;;;;;;;;9.50;99.90;;;;;;5042238;28;19923;-64
2023/04/21 08:05:00;;;;;;;;;;;9.50;99.90;;;;;;5044675;28;19917;-64
2023/04/21 08:07:25;;;;;;;;;;;9.50;99.90;;;;;;5040950;28;20367;-64
2023/04/21 08:09:51;;;;;;;;;;;9.60;99.90;;;;;;5042174;28;20375;-64
2023/04/21 08:12:16;;;;;;;;;;;9.60;99.90;;;;;;5039850;28;19913;-64
2023/04/21 08:14:41;;;;;;;;;;;9.70;99.90;;;;;;5041291;28;20406;-65
2023/04/21 08:17:07;;;;;;;;;;;9.80;99.90;;;;;;5040894;28;20302;-64
2023/04/21 08:19:32;;;;;;;;;;;9.80;99.90;;;;;;5037549;28;20368;-64
2023/04/21 08:21:58;;;;;;;;;;;9.90;99.90;;;;;;5040136;28;20000;-64
2023/04/21 08:24:23;;;;;;;;;;;10.00;99.90;;;;;;5038035;28;19928;-64
2023/04/21 08:26:49;;;;;;;;;;;10.00;99.90;;;;;;5039635;28;19912;-64
2023/04/21 08:29:15;;;;;;;;;;;10.10;99.90;;;;;;5040298;28;19918;-64
2023/04/21 08:31:40;;;;;;;;;;;10.10;99.90;;;;;;5040480;28;19995;-64
2023/04/21 08:34:06;;;;;;;;;;;10.20;99.90;;;;;;5042086;28;20272;-64
2023/04/21 08:36:31;;;;;;;;;;;10.40;99.90;;;;;;5038307;28;19913;-64
2023/04/21 08:38:57;;;;;;;;;;;10.40;99.90;;;;;;5041174;28;19928;-64
2023/04/21 08:41:23;;;;;;;;;;;10.40;99.90;;;;;;5045772;28;20370;-64
2023/04/21 08:43:48;;;;;;;;;;;10.50;99.90;;;;;;5044198;28;20008;-64
2023/04/21 08:46:14;;;;;;;;;;;10.40;99.90;;;;;;5036336;28;19944;-64
2023/04/21 08:48:40;;;;;;;;;;;10.50;99.90;;;;;;5041870;28;19909;-64
2023/04/21 08:51:08;;;;;;;;;;;10.60;99.90;;;;;;5039130;28;20297;-64
2023/04/21 08:53:34;;;;;;;;;;;10.80;99.90;;;;;;5043889;28;19913;-64
2023/04/21 08:56:00;;;;;;;;;;;10.90;99.90;;;;;;5038154;28;20320;-64
2023/04/21 08:58:25;;;;;;;;;;;11.00;99.90;;;;;;5047101;28;19917;-64
2023/04/21 09:00:50;;;;;;;;;;;11.10;99.90;;;;;;5040527;28;20004;-64
2023/04/21 09:03:25;;;;;;;;;;;11.20;99.90;;;;;;5041426;28;20407;-64
2023/04/21 09:06:01;;;;;;;;;;;11.20;99.90;;;;;;5041082;28;19913;-64
2023/04/21 09:08:28;;;;;;;;;;;11.30;99.90;;;;;;5035343;28;20620;-64
2023/04/21 09:10:54;;;;;;;;;;;11.50;99.90;;;;;;5032432;28;20383;-64
2023/04/21 09:13:20;;;;;;;;;;;11.80;99.90;;;;;;5034895;28;20040;-64
2023/04/21 09:15:47;;;;;;;;;;;12.00;99.90;;;;;;5037444;28;19959;-63
2023/04/21 09:18:17;;;;;;;;;;;12.10;99.90;;;;;;5037718;28;19913;-62
2023/04/21 09:20:44;;;;;;;;;;;12.20;99.90;;;;;;5037860;28;19959;-64
2023/04/21 09:23:09;;;;;;;;;;;12.10;99.90;;;;;;5037222;28;19921;-63
2023/04/21 09:25:37;;;;;;;;;;;12.20;99.90;;;;;;5036844;28;19928;-64
2023/04/21 09:28:06;;;;;;;;;;;12.20;99.90;;;;;;5037490;28;20069;-63
2023/04/21 09:30:33;;;;;;;;;;;12.30;99.90;;;;;;5036872;28;19917;-63
2023/04/21 09:32:59;;;;;;;;;;;12.60;99.90;;;;;;5026683;28;19914;-63
2023/04/21 09:35:28;;;;;;;;;;;12.80;99.90;;;;;;5033535;28;19920;-63
2023/04/21 09:37:53;;;;;;;;;;;13.10;99.90;;;;;;5041326;28;19920;-63
2023/04/21 09:40:19;;;;;;;;;;;13.20;99.90;;;;;;5028768;28;20443;-64
2023/04/21 09:42:44;;;;;;;;;;;13.30;99.90;;;;;;5030731;28;19912;-64
2023/04/21 09:45:10;;;;;;;;;;;13.50;99.90;;;;;;5030129;28;20382;-63
2023/04/21 09:47:39;;;;;;;;;;;13.50;99.90;;;;;;5032247;28;19917;-63
2023/04/21 09:50:10;;;;;;;;;;;13.40;99.90;;;;;;5030484;28;20299;-64
2023/04/21 09:52:36;;;;;;;;;;;13.30;99.90;;;;;;5036212;28;19917;-65
2023/04/21 09:55:03;;;;;;;;;;;13.40;99.90;;;;;;5034987;28;21045;-63
2023/04/21 09:57:30;;;;;;;;;;;13.40;99.90;;;;;;5029231;28;20291;-64
2023/04/21 09:59:59;;;;;;;;;;;13.40;99.90;;;;;;5039082;28;19959;-64
2023/04/21 10:02:28;;;;;;;;;;;13.70;99.90;;;;;;5033626;28;19927;-61
2023/04/21 10:04:54;;;;;;;;;;;14.20;99.90;;;;;;5032201;28;19925;-64
2023/04/21 10:07:19;;;;;;;;;;;14.50;99.90;;;;;;5032331;28;19971;-65
2023/04/21 10:09:47;;;;;;;;;;;15.00;99.90;;;;;;5039128;28;20051;-64
2023/04/21 10:12:14;;;;;;;;;;;15.30;99.90;;;;;;5035055;28;19919;-64
2023/04/21 10:14:39;;;;;;;;;;;15.30;99.90;;;;;;5038141;28;19956;-64
2023/04/21 10:17:06;;;;;;;;;;;15.30;99.90;;;;;;5035744;28;19952;-66
2023/04/21 10:19:38;;;;;;;;;;;14.90;99.90;;;;;;5034993;28;19919;-64
2023/04/21 10:22:05;;;;;;;;;;;15.10;99.90;;;;;;5034726;28;20322;-64
2023/04/21 10:24:30;;;;;;;;;;;15.30;99.90;;;;;;5033362;28;19971;-63
2023/04/21 10:26:59;;;;;;;;;;;15.50;99.90;;;;;;5031349;28;19921;-65
2023/04/21 10:29:28;;;;;;;;;;;15.70;99.90;;;;;;5032734;28;19939;-64
2023/04/21 10:31:54;;;;;;;;;;;16.00;99.90;;;;;;5037602;28;20398;-64
2023/04/21 10:34:33;;;;;;;;;;;15.70;99.90;;;;;;5034956;28;20137;-61
2023/04/21 10:36:58;;;;;;;;;;;15.50;99.90;;;;;;5031378;28;19909;-62
2023/04/21 10:39:27;;;;;;;;;;;15.80;99.90;;;;;;5024741;28;19920;-63
2023/04/21 10:41:59;;;;;;;;;;;15.60;99.90;;;;;;5039656;28;20056;-63
2023/04/21 10:44:27;;;;;;;;;;;16.00;99.90;;;;;;5038929;28;19971;-60
2023/04/21 10:46:52;;;;;;;;;;;16.40;99.90;;;;;;5038351;28;20090;-63
2023/04/21 10:49:29;;;;;;;;;;;16.60;99.90;;;;;;5036738;28;19913;-61
2023/04/21 10:52:06;;;;;;;;;;;16.90;99.90;;;;;;5044888;28;20585;-63
2023/04/21 10:54:40;;;;;;;;;;;17.00;99.90;;;;;;5036875;28;20807;-63
2023/04/21 10:57:07;;;;;;;;;;;16.80;99.90;;;;;;5039497;28;19913;-63
2023/04/21 10:59:33;;;;;;;;;;;16.80;99.90;;;;;;5037489;28;20601;-63
2023/04/21 11:01:59;;;;;;;;;;;17.10;99.90;;;;;;5037003;28;19957;-63
2023/04/21 11:04:24;;;;;;;;;;;17.00;99.90;;;;;;5039328;28;19995;-63
2023/04/21 11:07:09;;;;;;;;;;;17.10;99.90;;;;;;5037336;28;19916;-60
2023/04/21 11:09:35;;;;;;;;;;;16.90;99.90;;;;;;5032039;28;19925;-63
2023/04/21 11:12:03;;;;;;;;;;;17.00;99.90;;;;;;5038921;28;19959;-63
2023/04/21 11:14:29;;;;;;;;;;;17.20;99.90;;;;;;5040386;28;19921;-63
2023/04/21 11:16:54;;;;;;;;;;;17.30;99.90;;;;;;5032341;28;19956;-63
2023/04/21 11:19:24;;;;;;;;;;;17.70;99.90;;;;;;5033458;28;19948;-62
2023/04/21 11:21:50;;;;;;;;;;;17.90;99.90;;;;;;5033938;28;19920;-63
2023/04/21 11:24:15;;;;;;;;;;;18.20;99.90;;;;;;5035669;28;20024;-60
2023/04/21 11:26:41;;;;;;;;;;;18.50;99.90;;;;;;5030169;28;20603;-63
2023/04/21 11:29:08;;;;;;;;;;;18.60;99.90;;;;;;5040991;28;19974;-62
2023/04/21 11:31:39;;;;;;;;;;;18.80;99.90;;;;;;5041543;28;19965;-62
2023/04/21 11:34:05;;;;;;;;;;;18.60;99.90;;;;;;5039387;28;20494;-61
2023/04/21 11:36:34;;;;;;;;;;;18.40;99.90;;;;;;5036890;28;19983;-59
2023/04/21 11:39:03;;;;;;;;;;;18.50;99.90;;;;;;5036288;28;20304;-61
2023/04/21 11:41:29;;;;;;;;;;;18.90;99.90;;;;;;5043039;28;19928;-62
2023/04/21 11:43:54;;;;;;;;;;;19.00;99.90;;;;;;5040081;28;19917;-63
2023/04/21 11:46:24;;;;;;;;;;;19.30;99.90;;;;;;5037334;28;19917;-63
2023/04/21 11:49:00;;;;;;;;;;;19.20;99.90;;;;;;5039574;28;20040;-62
2023/04/21 11:51:26;;;;;;;;;;;18.90;99.90;;;;;;5044069;28;19913;-63
2023/04/21 11:53:52;;;;;;;;;;;19.10;99.90;;;;;;5046058;28;19920;-63
2023/04/21 11:56:20;;;;;;;;;;;19.30;99.90;;;;;;5036300;28;19920;-60
2023/04/21 11:58:46;;;;;;;;;;;19.60;99.90;;;;;;5039525;28;19968;-62
2023/04/21 12:01:14;;;;;;;;;;;19.90;99.90;;;;;;5039440;28;19999;-61
2023/04/21 12:03:39;;;;;;;;;;;20.10;99.90;;;;;;5037652;28;19935;-60
2023/04/21 12:06:06;;;;;;;;;;;20.10;97.30;;;;;;5037564;28;19917;-60
2023/04/21 12:08:31;;;;;;;;;;;20.20;99.90;;;;;;5042022;28;20279;-64
2023/04/21 12:10:58;;;;;;;;;;;20.40;99.90;;;;;;5036887;28;19927;-63
2023/04/21 12:13:27;;;;;;;;;;;20.50;99.90;;;;;;5033981;28;19920;-63
2023/04/21 12:15:52;;;;;;;;;;;20.90;99.90;;;;;;5040829;28;19921;-60
2023/04/21 12:18:18;;;;;;;;;;;21.20;99.90;;;;;;5037524;28;19921;-60
2023/04/21 12:20:50;;;;;;;;;;;21.20;99.90;;;;;;5039989;28;19925;-60
2023/04/21 12:23:16;;;;;;;;;;;20.80;99.90;;;;;;5037048;28;20584;-63
2023/04/21 12:25:41;;;;;;;;;;;20.10;99.90;;;;;;5035129;28;19909;-61
2023/04/21 12:28:07;;;;;;;;;;;19.70;99.90;;;;;;5037693;28;19974;-60
2023/04/21 12:30:33;;;;;;;;;;;19.30;99.90;;;;;;5039298;28;19913;-63
2023/04/21 12:32:59;;;;;;;;;;;19.30;99.90;;;;;;5038342;28;19913;-63
2023/04/21 12:35:24;;;;;;;;;;;19.30;99.90;;;;;;5032991;28;20411;-63
2023/04/21 12:37:50;;;;;;;;;;;20.00;99.90;;;;;;5035230;28;20300;-62
2023/04/21 12:40:15;;;;;;;;;;;20.20;99.90;;;;;;5040195;28;19919;-61
2023/04/21 12:42:41;;;;;;;;;;;19.90;99.90;;;;;;5033384;28;19976;-63
2023/04/21 12:45:06;;;;;;;;;;;19.80;99.90;;;;;;5034844;28;19933;-60
2023/04/21 12:47:32;;;;;;;;;;;20.00;99.90;;;;;;5034773;28;20004;-61
2023/04/21 12:50:01;;;;;;;;;;;19.70;99.90;;;;;;5038831;28;20470;-60
2023/04/21 12:52:26;;;;;;;;;;;19.60;99.90;;;;;;5033594;28;19913;-61
2023/04/21 12:54:52;;;;;;;;;;;19.60;99.90;;;;;;5032270;28;19929;-60
2023/04/21 12:57:17;;;;;;;;;;;19.60;99.90;;;;;;5032188;28;19971;-61
2023/04/21 12:59:43;;;;;;;;;;;20.10;99.90;;;;;;5035873;28;20438;-61
2023/04/21 13:02:08;;;;;;;;;;;20.60;99.90;;;;;;5035968;28;19920;-60
2023/04/21 13:04:35;;;;;;;;;;;20.60;99.90;;;;;;5032563;28;19944;-60
2023/04/21 13:07:00;;;;;;;;;;;20.10;99.90;;;;;;5041632;28;19917;-59
2023/04/21 13:09:26;;;;;;;;;;;20.30;99.90;;;;;;5037798;28;19921;-59
2023/04/21 13:11:51;;;;;;;;;;;20.20;99.90;;;;;;5039435;28;19913;-60
2023/04/21 13:14:17;;;;;;;;;;;19.60;99.90;;;;;;5039209;28;19913;-60
2023/04/21 13:16:42;;;;;;;;;;;19.40;99.90;;;;;;5032476;28;19943;-61
2023/04/21 13:19:08;;;;;;;;;;;19.00;99.90;;;;;;5037608;28;19970;-61
2023/04/21 13:21:33;;;;;;;;;;;18.90;99.90;;;;;;5043058;28;19909;-61
2023/04/21 13:24:01;;;;;;;;;;;18.60;99.90;;;;;;5039794;28;20361;-61
2023/04/21 13:26:27;;;;;;;;;;;18.60;99.90;;;;;;5038723;28;20397;-60
2023/04/21 13:28:52;;;;;;;;;;;18.70;99.90;;;;;;5039486;28;19917;-61
2023/04/21 13:31:17;;;;;;;;;;;18.80;99.90;;;;;;5038955;28;19923;-61
2023/04/21 13:33:43;;;;;;;;;;;19.20;99.90;;;;;;5031723;28;19917;-61
2023/04/21 13:36:09;;;;;;;;;;;19.50;99.90;;;;;;5039490;28;19920;-61
2023/04/21 13:38:35;;;;;;;;;;;20.10;99.90;;;;;;5036679;28;20051;-60
2023/04/21 13:41:00;;;;;;;;;;;20.40;99.90;;;;;;5034423;28;20022;-60
2023/04/21 13:43:25;;;;;;;;;;;20.50;99.90;;;;;;5037566;28;20295;-58
2023/04/21 13:45:51;;;;;;;;;;;20.00;99.90;;;;;;5037548;28;19912;-59
2023/04/21 13:48:19;;;;;;;;;;;19.40;99.90;;;;;;5034375;28;20272;-60
2023/04/21 13:50:45;;;;;;;;;;;19.10;99.90;;;;;;5038593;28;19913;-60
2023/04/21 13:53:12;;;;;;;;;;;19.30;99.90;;;;;;5031175;28;19917;-60
2023/04/21 13:55:38;;;;;;;;;;;19.60;99.90;;;;;;5037430;28;19917;-60
2023/04/21 13:58:03;;;;;;;;;;;20.10;99.90;;;;;;5035503;28;19919;-61
2023/04/21 14:00:29;;;;;;;;;;;20.50;99.90;;;;;;5040071;28;20020;-62
2023/04/21 14:02:54;;;;;;;;;;;20.80;99.90;;;;;;5024387;28;20000;-61
2023/04/21 14:05:20;;;;;;;;;;;20.90;99.90;;;;;;5029146;28;19921;-61
2023/04/21 14:07:45;;;;;;;;;;;20.80;99.90;;;;;;5031875;28;19920;-61
2023/04/21 14:10:11;;;;;;;;;;;20.80;99.90;;;;;;5020985;28;19921;-61
2023/04/21 14:12:36;;;;;;;;;;;20.80;99.90;;;;;;5029119;28;19974;-60
2023/04/21 14:15:03;;;;;;;;;;;21.10;99.90;;;;;;5034914;28;19988;-61
2023/04/21 14:17:29;;;;;;;;;;;21.20;99.90;;;;;;5032361;28;19919;-60